createdAt,value
2018-05-31T00:04:56.488Z,22.20
2018-05-31T00:09:54.210Z,22.10
2018-05-31T00:14:51.951Z,22.10
2018-05-31T00:17:20.970Z,22.00
2018-05-31T00:22:18.699Z,22.00
2018-05-31T00:24:47.326Z,22.00
2018-05-31T00:27:15.567Z,22.00
2018-05-31T00:29:43.837Z,22.00
2018-05-31T00:32:12.839Z,22.00
2018-05-31T00:34:41.084Z,22.00
2018-05-31T00:37:09.366Z,21.90
2018-05-31T00:39:37.621Z,21.90
2018-05-31T00:42:05.850Z,21.90
2018-05-31T00:44:34.107Z,21.90
2018-05-31T00:47:02.347Z,21.80
2018-05-31T00:49:30.587Z,21.80
2018-05-31T00:51:58.848Z,21.80
2018-05-31T00:56:56.543Z,21.80
2018-05-31T00:59:24.829Z,21.80
2018-05-31T01:01:53.059Z,21.80
2018-05-31T01:04:22.456Z,21.80
2018-05-31T01:06:50.708Z,21.80
2018-05-31T01:09:20.458Z,21.80
2018-05-31T01:11:48.692Z,21.80
2018-05-31T01:14:16.959Z,21.80
2018-05-31T01:16:45.969Z,21.70
2018-05-31T01:19:14.994Z,21.70
2018-05-31T01:21:43.269Z,21.70
2018-05-31T01:26:41.401Z,21.60
2018-05-31T01:29:09.619Z,21.60
2018-05-31T01:31:37.874Z,21.60
2018-05-31T01:34:06.111Z,21.60
2018-05-31T01:36:35.876Z,21.60
2018-05-31T01:39:04.133Z,21.60
2018-05-31T01:41:32.366Z,21.60
2018-05-31T01:44:00.623Z,21.60
2018-05-31T01:46:28.863Z,21.60
2018-05-31T01:48:57.130Z,21.50
2018-05-31T01:51:25.391Z,21.50
2018-05-31T01:53:53.646Z,21.50
2018-05-31T01:56:22.665Z,21.50
2018-05-31T02:01:21.538Z,21.40
2018-05-31T02:03:50.915Z,21.50
2018-05-31T02:06:19.274Z,21.50
2018-05-31T02:11:17.359Z,21.50
2018-05-31T02:13:45.613Z,21.50
2018-05-31T02:16:13.875Z,21.50
2018-05-31T02:18:42.138Z,21.50
2018-05-31T02:21:10.400Z,21.50
2018-05-31T02:23:39.849Z,21.40
2018-05-31T02:26:08.858Z,21.40
2018-05-31T02:31:06.598Z,21.40
2018-05-31T02:33:34.877Z,21.40
2018-05-31T02:36:03.102Z,21.40
2018-05-31T02:38:31.341Z,21.40
2018-05-31T02:40:59.595Z,21.40
2018-05-31T02:43:29.359Z,21.40
2018-05-31T02:45:59.100Z,21.40
2018-05-31T02:48:27.334Z,21.40
2018-05-31T02:50:55.596Z,21.40
2018-05-31T02:53:23.849Z,21.40
2018-05-31T02:55:52.087Z,21.40
2018-05-31T02:58:20.338Z,21.40
2018-05-31T03:00:48.614Z,21.40
2018-05-31T03:03:17.615Z,21.40
2018-05-31T03:05:45.863Z,21.40
2018-05-31T03:08:14.110Z,21.30
2018-05-31T03:10:42.385Z,21.30
2018-05-31T03:15:41.278Z,21.30
2018-05-31T03:18:10.297Z,21.20
2018-05-31T03:20:38.540Z,21.30
2018-05-31T03:23:06.791Z,21.30
2018-05-31T03:25:35.070Z,21.30
2018-05-31T03:28:04.802Z,21.40
2018-05-31T03:30:33.814Z,21.40
2018-05-31T03:33:02.137Z,21.50
2018-05-31T03:35:31.138Z,21.50
2018-05-31T03:40:29.246Z,21.50
2018-05-31T03:42:57.491Z,21.50
2018-05-31T03:45:26.495Z,21.50
2018-05-31T03:50:24.210Z,21.50
2018-05-31T03:52:52.865Z,21.50
2018-05-31T03:57:50.582Z,21.50
2018-05-31T04:00:20.326Z,21.50
2018-05-31T04:02:48.608Z,21.60
2018-05-31T04:05:16.834Z,21.60
2018-05-31T04:07:45.071Z,21.60
2018-05-31T04:10:13.327Z,21.60
2018-05-31T04:12:42.717Z,21.60
2018-05-31T04:15:10.958Z,21.60
2018-05-31T04:17:39.218Z,21.70
2018-05-31T04:20:09.000Z,21.70
2018-05-31T04:22:37.254Z,21.70
2018-05-31T04:25:05.511Z,21.60
2018-05-31T04:27:33.770Z,21.60
2018-05-31T04:30:02.033Z,21.60
2018-05-31T04:32:30.317Z,21.60
2018-05-31T04:34:58.554Z,21.60
2018-05-31T04:37:26.805Z,21.60
2018-05-31T04:39:56.213Z,21.60
2018-05-31T04:42:25.247Z,21.60
2018-05-31T04:47:24.403Z,21.70
2018-05-31T04:49:53.422Z,21.70
2018-05-31T04:52:22.790Z,21.70
2018-05-31T04:54:52.558Z,21.80
2018-05-31T04:57:21.190Z,21.80
2018-05-31T04:59:50.930Z,21.90
2018-05-31T05:02:19.951Z,21.90
2018-05-31T05:04:49.328Z,22.00
2018-05-31T05:07:17.590Z,22.00
2018-05-31T05:09:47.359Z,22.10
2018-05-31T05:12:15.599Z,22.20
2018-05-31T05:14:43.835Z,22.20
2018-05-31T05:17:12.494Z,22.30
2018-05-31T05:19:40.727Z,22.30
2018-05-31T05:22:10.130Z,22.30
2018-05-31T05:24:38.378Z,22.40
2018-05-31T05:27:07.014Z,22.40
2018-05-31T05:29:36.387Z,22.50
2018-05-31T05:32:05.410Z,22.50
2018-05-31T05:34:34.414Z,22.50
2018-05-31T05:37:02.650Z,22.60
2018-05-31T05:39:30.921Z,22.60
2018-05-31T05:41:59.154Z,22.70
2018-05-31T05:44:27.415Z,22.70
2018-05-31T05:46:55.670Z,22.80
2018-05-31T05:49:25.450Z,22.90
2018-05-31T05:51:53.666Z,22.90
2018-05-31T05:54:21.914Z,23.00
2018-05-31T05:56:50.186Z,23.10
2018-05-31T05:59:19.571Z,23.20
2018-05-31T06:01:47.805Z,23.30
2018-05-31T06:04:16.033Z,23.50
2018-05-31T06:09:14.150Z,23.60
2018-05-31T06:11:43.158Z,23.80
2018-05-31T06:14:11.403Z,23.90
2018-05-31T06:16:40.314Z,24.00
2018-05-31T06:19:08.566Z,24.10
2018-05-31T06:21:36.819Z,24.10
2018-05-31T06:24:05.044Z,24.10
2018-05-31T06:26:33.337Z,24.20
2018-05-31T06:29:03.076Z,24.20
2018-05-31T06:31:31.298Z,24.20
2018-05-31T06:41:29.447Z,24.40
2018-05-31T06:43:58.463Z,24.40
2018-05-31T06:46:28.030Z,24.60
2018-05-31T06:48:56.250Z,24.70
2018-05-31T06:51:24.498Z,24.90
2018-05-31T06:53:54.268Z,24.90
2018-05-31T06:56:22.497Z,25.00
2018-05-31T06:58:50.740Z,25.10
2018-05-31T07:01:18.999Z,25.20
2018-05-31T07:03:47.223Z,25.30
2018-05-31T07:06:17.319Z,25.50
2018-05-31T07:08:46.686Z,25.70
2018-05-31T07:11:14.911Z,25.80
2018-05-31T07:13:43.932Z,25.90
2018-05-31T07:16:14.234Z,25.90
2018-05-31T07:18:45.845Z,25.80
2018-05-31T07:21:14.070Z,25.80
2018-05-31T07:23:43.439Z,25.80
2018-05-31T07:26:11.691Z,25.80
2018-05-31T07:31:10.590Z,25.80
2018-05-31T07:33:38.822Z,25.80
2018-05-31T07:36:07.061Z,25.80
2018-05-31T07:38:36.065Z,25.90
2018-05-31T07:41:04.315Z,26.00
2018-05-31T07:43:32.542Z,26.00
2018-05-31T07:46:00.774Z,26.00
2018-05-31T07:48:30.528Z,26.10
2018-05-31T07:50:58.786Z,26.20
2018-05-31T07:53:27.034Z,26.10
2018-05-31T07:55:55.686Z,26.20
2018-05-31T07:58:23.909Z,26.20
2018-05-31T08:00:53.259Z,26.20
2018-05-31T08:03:22.286Z,26.30
2018-05-31T08:05:51.278Z,26.40
2018-05-31T08:08:19.895Z,26.40
2018-05-31T08:10:49.654Z,26.50
2018-05-31T08:13:17.956Z,26.60
2018-05-31T08:18:16.027Z,26.60
2018-05-31T08:20:44.309Z,26.60
2018-05-31T08:23:12.496Z,26.70
2018-05-31T08:25:40.739Z,26.60
2018-05-31T08:28:09.007Z,26.60
2018-05-31T08:30:37.251Z,26.70
2018-05-31T08:33:05.483Z,26.70
2018-05-31T08:35:34.889Z,26.70
2018-05-31T08:38:03.119Z,26.70
2018-05-31T08:40:32.851Z,26.70
2018-05-31T08:43:01.864Z,26.70
2018-05-31T08:45:31.226Z,26.70
2018-05-31T08:47:59.450Z,26.70
2018-05-31T08:50:27.723Z,26.60
2018-05-31T08:52:55.995Z,26.60
2018-05-31T08:55:25.366Z,26.60
2018-05-31T08:57:53.606Z,26.60
2018-05-31T09:00:21.839Z,26.60
2018-05-31T09:02:50.075Z,26.60
2018-05-31T09:07:48.195Z,26.60
2018-05-31T09:10:16.458Z,26.60
2018-05-31T09:12:44.699Z,26.60
2018-05-31T09:15:12.981Z,26.60
2018-05-31T09:17:42.724Z,26.70
2018-05-31T09:20:10.999Z,26.70
2018-05-31T09:22:39.212Z,26.70
2018-05-31T09:25:07.840Z,26.70
2018-05-31T09:27:36.875Z,26.80
2018-05-31T09:30:05.119Z,26.80
2018-05-31T09:32:33.373Z,26.80
2018-05-31T09:35:01.659Z,26.90
2018-05-31T09:37:29.870Z,26.90
2018-05-31T09:39:58.120Z,27.00
2018-05-31T09:42:26.364Z,27.10
2018-05-31T09:44:54.611Z,27.10
2018-05-31T09:47:22.855Z,27.20
2018-05-31T09:49:52.228Z,27.20
2018-05-31T09:52:20.450Z,27.20
2018-05-31T09:54:48.699Z,27.30
2018-05-31T09:57:16.950Z,27.20
2018-05-31T09:59:45.183Z,27.20
2018-05-31T10:04:42.886Z,27.40
2018-05-31T10:07:11.115Z,27.40
2018-05-31T10:09:39.382Z,27.50
2018-05-31T10:12:07.630Z,27.50
2018-05-31T10:14:35.851Z,27.50
2018-05-31T10:17:10.172Z,27.60
2018-05-31T10:19:39.953Z,27.60
2018-05-31T10:22:08.183Z,27.70
2018-05-31T10:24:37.879Z,27.70
2018-05-31T10:27:06.136Z,27.70
2018-05-31T10:29:35.527Z,27.70
2018-05-31T10:32:03.755Z,27.60
2018-05-31T10:34:32.790Z,27.60
2018-05-31T10:37:01.025Z,27.60
2018-05-31T10:39:30.072Z,27.50
2018-05-31T10:41:58.283Z,27.50
2018-05-31T10:44:26.532Z,27.60
2018-05-31T10:46:54.770Z,27.60
2018-05-31T10:49:23.044Z,27.70
2018-05-31T10:51:51.286Z,27.80
2018-05-31T10:54:19.516Z,27.80
2018-05-31T10:56:49.282Z,27.90
2018-05-31T10:59:17.560Z,27.90
2018-05-31T11:01:45.751Z,28.00
2018-05-31T11:04:15.519Z,28.10
2018-05-31T11:06:43.778Z,28.10
2018-05-31T11:16:40.474Z,28.40
2018-05-31T11:19:10.328Z,28.40
2018-05-31T11:21:38.624Z,28.60
2018-05-31T11:24:07.203Z,28.80
2018-05-31T11:26:36.957Z,28.90
2018-05-31T11:29:06.336Z,28.90
2018-05-31T11:31:34.579Z,29.00
2018-05-31T11:34:03.599Z,29.00
2018-05-31T11:36:33.351Z,29.20
2018-05-31T11:39:02.728Z,29.30
2018-05-31T11:41:31.737Z,29.30
2018-05-31T11:43:59.958Z,29.30
2018-05-31T11:46:29.127Z,29.30
2018-05-31T11:48:57.359Z,29.40
2018-05-31T11:51:25.607Z,29.40
2018-05-31T11:53:53.873Z,29.40
2018-05-31T11:56:22.149Z,29.40
2018-05-31T11:58:51.879Z,29.40
2018-05-31T12:01:20.111Z,29.40
2018-05-31T12:03:48.380Z,29.40
2018-05-31T12:06:18.122Z,29.40
2018-05-31T12:08:46.385Z,29.40
2018-05-31T12:11:15.386Z,29.30
2018-05-31T12:13:45.199Z,29.30
2018-05-31T12:16:14.590Z,29.30
2018-05-31T12:18:43.592Z,29.30
2018-05-31T12:21:12.955Z,29.30
2018-05-31T12:23:41.207Z,29.40
2018-05-31T12:26:09.452Z,29.30
2018-05-31T12:28:37.674Z,29.30
2018-05-31T12:31:05.925Z,29.30
2018-05-31T12:33:35.310Z,29.20
2018-05-31T12:36:03.552Z,29.20
2018-05-31T12:38:32.555Z,29.30
2018-05-31T12:41:01.578Z,29.50
2018-05-31T12:43:29.822Z,29.60
2018-05-31T12:45:58.047Z,29.60
2018-05-31T12:48:26.329Z,29.70
2018-05-31T12:50:56.065Z,29.70
2018-05-31T12:53:24.287Z,29.80
2018-05-31T12:55:52.940Z,29.90
2018-05-31T12:58:22.310Z,30.00
2018-05-31T13:00:50.547Z,30.10
2018-05-31T13:03:18.796Z,30.20
2018-05-31T13:05:48.649Z,30.30
2018-05-31T13:10:47.122Z,30.50
2018-05-31T13:13:15.423Z,30.50
2018-05-31T13:15:43.667Z,30.50
2018-05-31T13:18:13.418Z,30.40
2018-05-31T13:20:41.675Z,30.40
2018-05-31T13:23:09.934Z,30.40
2018-05-31T13:25:38.162Z,30.30
2018-05-31T13:28:06.717Z,30.10
2018-05-31T13:30:35.828Z,30.00
2018-05-31T13:33:04.846Z,30.00
2018-05-31T13:35:34.244Z,29.90
2018-05-31T13:38:02.503Z,29.80
2018-05-31T13:40:30.766Z,29.70
2018-05-31T13:42:59.019Z,29.70
2018-05-31T13:45:27.294Z,29.70
2018-05-31T13:47:55.527Z,29.70
2018-05-31T13:50:23.806Z,29.70
2018-05-31T13:52:52.842Z,29.70
2018-05-31T13:55:21.078Z,29.60
2018-05-31T13:57:49.335Z,29.60
2018-05-31T14:00:17.564Z,29.50
2018-05-31T14:02:45.803Z,29.50
2018-05-31T14:05:15.563Z,29.40
2018-05-31T14:07:43.819Z,29.40
2018-05-31T14:10:12.064Z,29.30
2018-05-31T14:12:40.319Z,29.20
2018-05-31T14:15:08.558Z,29.10
2018-05-31T14:17:36.798Z,29.10
2018-05-31T14:20:05.051Z,29.00
2018-05-31T14:25:02.793Z,29.00
2018-05-31T14:27:31.054Z,29.00
2018-05-31T14:29:59.307Z,28.90
2018-05-31T14:32:27.562Z,28.90
2018-05-31T14:34:55.803Z,28.80
2018-05-31T14:37:24.819Z,28.80
2018-05-31T14:39:53.060Z,28.80
2018-05-31T14:42:22.061Z,28.80
2018-05-31T14:44:51.102Z,28.80
2018-05-31T14:47:19.342Z,28.90
2018-05-31T14:49:48.342Z,28.90
2018-05-31T14:52:17.522Z,28.80
2018-05-31T14:54:45.774Z,28.90
2018-05-31T14:57:14.775Z,28.80
2018-05-31T14:59:44.547Z,28.70
2018-05-31T15:04:42.275Z,28.70
2018-05-31T15:07:11.298Z,28.70
2018-05-31T15:09:40.328Z,28.70
2018-05-31T15:12:08.637Z,28.70
2018-05-31T15:14:36.887Z,28.60
2018-05-31T15:17:05.150Z,28.60
2018-05-31T15:19:34.933Z,28.60
2018-05-31T15:22:04.775Z,28.50
2018-05-31T15:24:32.994Z,28.50
2018-05-31T15:27:02.029Z,28.50
2018-05-31T15:29:30.283Z,28.50
2018-05-31T15:31:59.299Z,28.50
2018-05-31T15:34:27.535Z,28.40
2018-05-31T15:36:56.550Z,28.40
2018-05-31T15:39:25.934Z,28.40
2018-05-31T15:41:54.970Z,28.30
2018-05-31T15:46:52.685Z,28.20
2018-05-31T15:49:20.939Z,28.20
2018-05-31T15:54:18.627Z,28.10
2018-05-31T15:56:46.899Z,28.10
2018-05-31T15:59:15.143Z,28.10
2018-05-31T16:01:43.390Z,28.00
2018-05-31T16:04:14.190Z,27.90
2018-05-31T16:06:46.923Z,27.90
2018-05-31T16:09:15.955Z,27.90
2018-05-31T16:14:14.074Z,27.80
2018-05-31T16:16:42.318Z,27.80
2018-05-31T16:19:11.366Z,27.80
2018-05-31T16:21:39.668Z,27.80
2018-05-31T16:24:07.959Z,27.80
2018-05-31T16:26:36.191Z,27.70
2018-05-31T16:29:04.437Z,27.70
2018-05-31T16:31:32.702Z,27.70
2018-05-31T16:34:00.946Z,27.60
2018-05-31T16:36:29.190Z,27.60
2018-05-31T16:38:57.458Z,27.60
2018-05-31T16:41:26.490Z,27.50
2018-05-31T16:43:54.731Z,27.50
2018-05-31T16:46:23.390Z,27.50
2018-05-31T16:48:51.661Z,27.40
2018-05-31T16:53:49.392Z,27.30
2018-05-31T16:56:18.048Z,27.30
2018-05-31T16:58:46.308Z,27.30
2018-05-31T17:01:15.309Z,27.30
2018-05-31T17:03:44.331Z,27.30
2018-05-31T17:06:13.753Z,27.20
2018-05-31T17:08:41.978Z,27.20
2018-05-31T17:11:10.234Z,27.20
2018-05-31T17:13:38.490Z,27.20
2018-05-31T17:16:06.731Z,27.20
2018-05-31T17:18:34.987Z,27.20
2018-05-31T17:21:03.223Z,27.20
2018-05-31T17:23:32.237Z,27.20
2018-05-31T17:26:00.502Z,27.20
2018-05-31T17:28:28.746Z,27.20
2018-05-31T17:30:57.043Z,27.10
2018-05-31T17:33:25.283Z,27.10
2018-05-31T17:35:55.066Z,27.10
2018-05-31T17:40:53.182Z,27.00
2018-05-31T17:43:21.439Z,27.00
2018-05-31T17:45:49.683Z,26.90
2018-05-31T17:48:17.959Z,26.90
2018-05-31T17:50:46.225Z,26.90
2018-05-31T17:53:14.474Z,26.80
2018-05-31T17:55:43.862Z,26.70
2018-05-31T17:58:12.133Z,26.70
2018-05-31T18:00:40.409Z,26.60
2018-05-31T18:03:10.632Z,26.60
2018-05-31T18:08:08.867Z,26.50
2018-05-31T18:10:37.102Z,26.40
2018-05-31T18:13:06.314Z,26.40
2018-05-31T18:15:35.338Z,26.40
2018-05-31T18:18:04.353Z,26.40
2018-05-31T18:20:33.007Z,26.40
2018-05-31T18:23:02.248Z,26.30
2018-05-31T18:25:31.268Z,26.30
2018-05-31T18:27:59.507Z,26.30
2018-05-31T18:30:27.762Z,26.20
2018-05-31T18:32:55.999Z,26.20
2018-05-31T18:35:24.239Z,26.10
2018-05-31T18:37:53.635Z,26.10
2018-05-31T18:40:22.659Z,26.10
2018-05-31T18:42:52.031Z,26.00
2018-05-31T18:45:21.055Z,26.00
2018-05-31T18:50:18.762Z,25.90
2018-05-31T18:52:47.078Z,25.80
2018-05-31T18:55:15.325Z,25.80
2018-05-31T18:57:43.555Z,25.70
2018-05-31T19:00:11.818Z,25.70
2018-05-31T19:02:40.844Z,25.70
2018-05-31T19:05:09.090Z,25.70
2018-05-31T19:07:40.370Z,25.60
2018-05-31T19:10:09.003Z,25.50
2018-05-31T19:12:44.170Z,25.50
2018-05-31T19:17:49.535Z,25.40
2018-05-31T19:20:17.795Z,25.30
2018-05-31T19:22:46.026Z,25.30
2018-05-31T19:27:48.149Z,25.20
2018-05-31T19:32:52.078Z,25.10
2018-05-31T19:35:25.976Z,25.00
2018-05-31T19:37:55.000Z,25.00
2018-05-31T19:40:23.256Z,24.90
2018-05-31T19:42:58.330Z,24.80
2018-05-31T19:45:27.334Z,24.80
2018-05-31T19:47:55.570Z,24.70
2018-05-31T19:50:24.966Z,24.60
2018-05-31T19:52:58.895Z,24.60
2018-05-31T19:55:27.901Z,24.60
2018-05-31T19:58:01.728Z,24.50
2018-05-31T20:03:11.182Z,24.40
2018-05-31T20:05:39.820Z,24.30
2018-05-31T20:08:08.051Z,24.30
2018-05-31T20:13:06.546Z,24.20
2018-05-31T20:15:34.788Z,24.10
2018-05-31T20:18:03.052Z,24.10
2018-05-31T20:20:32.434Z,24.10
2018-05-31T20:23:00.667Z,24.10
2018-05-31T20:25:28.928Z,24.10
2018-05-31T20:27:57.160Z,24.00
2018-05-31T20:30:25.406Z,24.00
2018-05-31T20:32:53.668Z,24.00
2018-05-31T20:35:21.940Z,24.00
2018-05-31T20:37:50.951Z,23.90
2018-05-31T20:40:19.983Z,23.90
2018-05-31T20:42:49.375Z,23.80
2018-05-31T20:45:17.616Z,23.80
2018-05-31T20:47:46.643Z,23.80
2018-05-31T20:50:15.651Z,23.80
2018-05-31T20:52:44.655Z,23.70
2018-05-31T20:55:14.067Z,23.70
2018-05-31T20:57:42.299Z,23.70
2018-05-31T21:00:10.935Z,23.60
2018-05-31T21:02:39.197Z,23.60
2018-05-31T21:05:08.212Z,23.60
2018-05-31T21:12:40.768Z,23.50
2018-05-31T21:15:09.004Z,23.40
2018-05-31T21:17:37.239Z,23.40
2018-05-31T21:20:05.559Z,23.30
2018-05-31T21:22:34.150Z,23.30
2018-05-31T21:25:03.167Z,23.30
2018-05-31T21:27:31.436Z,23.20
2018-05-31T21:29:59.674Z,23.20
2018-05-31T21:32:28.360Z,23.10
2018-05-31T21:34:57.773Z,23.10
2018-05-31T21:37:27.541Z,23.10
2018-05-31T21:42:56.287Z,23.00
2018-05-31T21:48:34.605Z,22.90
2018-05-31T21:57:00.384Z,22.80
2018-05-31T22:01:59.506Z,22.80
2018-05-31T22:04:27.770Z,22.70
2018-05-31T22:06:58.175Z,22.70
2018-05-31T22:09:27.175Z,22.70
2018-05-31T22:11:55.434Z,22.60
2018-05-31T22:14:23.697Z,22.60
2018-05-31T22:16:51.952Z,22.60
2018-05-31T22:19:20.413Z,22.60
2018-05-31T22:21:48.622Z,22.60
2018-05-31T22:24:16.859Z,22.50
2018-05-31T22:26:45.883Z,22.50
2018-05-31T22:31:44.371Z,22.50
2018-05-31T22:37:05.287Z,22.50
2018-05-31T22:39:33.552Z,22.40
2018-05-31T22:42:03.336Z,22.40
2018-05-31T22:44:31.587Z,22.40
2018-05-31T22:46:59.859Z,22.40
2018-05-31T22:49:34.743Z,22.40
2018-05-31T22:52:03.756Z,22.30
2018-05-31T22:57:02.293Z,22.30
2018-05-31T22:59:31.692Z,22.20
2018-05-31T23:01:59.955Z,22.20
2018-05-31T23:04:28.204Z,22.20
2018-05-31T23:06:56.467Z,22.20
2018-05-31T23:09:24.730Z,22.20
2018-05-31T23:11:54.110Z,22.10
2018-05-31T23:14:22.763Z,22.00
2018-05-31T23:16:52.164Z,22.00
2018-05-31T23:19:20.807Z,22.00
2018-05-31T23:21:50.571Z,22.00
2018-05-31T23:24:18.832Z,21.90
2018-05-31T23:29:17.676Z,21.90
2018-05-31T23:31:47.080Z,21.90
2018-05-31T23:34:16.119Z,21.90
2018-05-31T23:36:45.120Z,21.80
2018-05-31T23:39:13.779Z,21.80
2018-05-31T23:44:11.503Z,21.70
2018-05-31T23:46:40.522Z,21.70
2018-05-31T23:49:09.942Z,21.70
2018-05-31T23:51:38.584Z,21.70
2018-05-31T23:54:06.845Z,21.70
2018-05-31T23:59:04.585Z,21.60
